Time;durP1;ratioP1;P1;durP2;ratioP2;P2;SDS_P1;SDS_P2;PMS_P1;PMS_P2;Temp;Humidity;BMP_temperature;BMP_pressure;BME280_temperature;BME280_humidity;BME280_pressure;Samples;Min_cycle;Max_cycle;Signal;HPM_P1;HPM_P2
2022/09/08 00:00:14;;;;;;;4.27;2.20;;;;;;;17.85;81.14;99539.81;5094416;28;19915;-78
2022/09/08 00:02:39;;;;;;;5.45;2.60;;;;;;;17.81;80.91;99531.59;5094679;28;20369;-78
2022/09/08 00:05:06;;;;;;;;;;;;;;;17.73;81.58;99528.03;5094598;28;20100;-78
2022/09/08 00:07:32;;;;;;;4.72;2.50;;;;;;;17.70;81.66;99522.56;5076242;28;19912;-78
2022/09/08 00:09:57;;;;;;;5.60;2.15;;;;;;;17.62;82.00;99521.72;5076389;28;20115;-78
2022/09/08 00:12:24;;;;;;;;;;;;;;;17.55;82.33;99519.00;5094827;28;20107;-78
2022/09/08 00:14:50;;;;;;;3.95;1.95;;;;;;;17.65;81.92;99526.47;5094493;28;20304;-78
2022/09/08 00:17:15;;;;;;;;;;;;;;;17.72;81.71;99522.94;5094623;28;20134;-78
2022/09/08 00:19:40;;;;;;;4.45;1.95;;;;;;;17.72;81.37;99514.69;5094213;28;19973;-78
2022/09/08 00:22:06;;;;;;;;;;;;;;;17.63;81.71;99515.03;5094662;28;20049;-78
2022/09/08 00:24:31;;;;;;;4.50;1.73;;;;;;;17.56;82.06;99515.06;5094223;28;20006;-78
2022/09/08 00:26:56;;;;;;;;;;;;;;;17.49;82.59;99509.59;5094363;28;20254;-78
2022/09/08 00:29:21;;;;;;;4.37;1.90;;;;;;;17.45;82.53;99509.56;5094155;28;19911;-79
2022/09/08 00:31:47;;;;;;;;;;;;;;;17.47;82.81;99505.63;5094157;28;20286;-79
2022/09/08 00:34:12;;;;;;;4.03;1.85;;;;;;;17.42;82.87;99495.81;5075796;28;19912;-78
2022/09/08 00:36:38;;;;;;;;;;;;;;;17.41;83.03;99491.50;5094661;28;20034;-78
2022/09/08 00:39:04;;;;;;;3.17;1.40;;;;;;;17.52;82.47;99488.75;5093822;28;19937;-79
2022/09/08 00:41:29;;;;;;;;;;;;;;;17.56;82.23;99487.53;5093845;28;20475;-78
2022/09/08 00:44:00;;;;;;;4.30;1.88;;;;;;;17.47;82.47;99478.94;5093865;28;20286;-78
2022/09/08 00:46:31;;;;;;;5.25;2.17;;;;;;;17.46;82.24;99471.81;5093943;28;20554;-79
2022/09/08 00:49:16;;;;;;;3.63;1.50;;;;;;;17.44;82.64;99452.19;5093385;28;20379;-78
2022/09/08 00:51:45;;;;;;;4.35;1.77;;;;;;;17.54;82.48;99453.34;5093492;28;20500;-79
2022/09/08 00:54:12;;;;;;;3.70;1.55;;;;;;;17.77;81.14;99450.16;5093963;28;20032;-79
2022/09/08 00:56:41;;;;;;;4.72;1.80;;;;;;;17.84;80.70;99439.91;5092312;28;20032;-78
2022/09/08 00:59:07;;;;;;;4.75;2.60;;;;;;;17.85;80.39;99446.19;5093655;28;20035;-79
2022/09/08 01:01:34;;;;;;;4.25;1.83;;;;;;;17.85;80.68;99443.44;5093750;28;20119;-79
2022/09/08 01:04:00;;;;;;;4.03;1.70;;;;;;;17.80;80.87;99443.84;5093033;28;20051;-79
2022/09/08 01:12:45;;;;;;;3.35;1.80;;;;;;;17.53;83.30;99433.28;5068933;28;20164;-78
2022/09/08 01:15:18;;;;;;;4.03;1.85;;;;;;;17.56;83.21;99434.47;5093275;28;20031;-78
2022/09/08 01:17:45;;;;;;;5.47;1.35;;;;;;;17.60;83.25;99430.50;5093180;28;20399;-78
2022/09/08 01:20:11;;;;;;;4.38;1.60;;;;;;;17.56;83.38;99432.50;5093169;28;20032;-78
2022/09/08 01:22:49;;;;;;;;;;;;;;;17.51;83.75;99426.63;5093713;28;20067;-78
2022/09/08 01:25:36;;;;;;;4.55;1.70;;;;;;;17.53;84.35;99424.25;5092940;28;20270;-78
2022/09/08 01:28:12;;;;;;;3.78;1.60;;;;;;;17.51;84.04;99421.91;5092707;28;20039;-78
2022/09/08 01:30:38;;;;;;;;;;;;;;;17.47;84.26;99429.38;5074978;28;20032;-78
2022/09/08 01:33:06;;;;;;;3.25;1.58;;;;;;;17.47;84.42;99421.13;5092875;28;19922;-79
2022/09/08 01:35:40;;;;;;;3.72;1.67;;;;;;;17.60;83.76;99425.00;5092959;28;20047;-78
2022/09/08 01:38:08;;;;;;;3.53;1.42;;;;;;;17.55;83.92;99422.66;5092743;28;20036;-78
2022/09/08 01:40:35;;;;;;;4.78;2.20;;;;;;;17.53;84.41;99418.75;5092494;28;20035;-78
2022/09/08 01:43:00;;;;;;;3.55;1.67;;;;;;;17.51;84.51;99421.13;5092235;28;20455;-77
2022/09/08 01:45:27;;;;;;;;;;;;;;;17.59;84.06;99417.94;5092689;28;20089;-78
2022/09/08 01:47:53;;;;;;;4.10;1.77;;;;;;;17.49;84.43;99418.75;5092620;28;20351;-78
2022/09/08 01:50:18;;;;;;;;;;;;;;;17.56;83.87;99418.72;5092535;28;20123;-78
2022/09/08 01:52:44;;;;;;;3.00;1.58;;;;;;;17.53;83.86;99427.00;5097733;28;19995;-78
2022/09/08 01:55:09;;;;;;;;;;;;;;;17.48;84.14;99432.94;5097267;28;20043;-78
2022/09/08 01:57:34;;;;;;;3.97;1.50;;;;;;;17.56;84.16;99421.47;5095937;28;20259;-78
2022/09/08 02:00:00;;;;;;;;;;;;;;;17.69;83.27;99416.38;5094230;28;20036;-78
2022/09/08 02:02:25;;;;;;;3.40;1.50;;;;;;;17.71;82.48;99431.28;5093323;28;19916;-78
2022/09/08 02:04:50;;;;;;;;;;;;;;;17.67;82.85;99425.00;5092816;28;20085;-78
2022/09/08 02:07:15;;;;;;;3.30;1.50;;;;;;;17.63;83.14;99428.91;5091995;28;19923;-78
2022/09/08 02:09:41;;;;;;;;;;;;;;;17.65;83.05;99415.56;5092690;28;20035;-78
2022/09/08 02:12:06;;;;;;;3.30;1.50;;;;;;;17.69;82.63;99419.13;5092440;28;19922;-78
2022/09/08 02:14:31;;;;;;;;;;;;;;;17.52;83.54;99415.22;5092565;28;20107;-78
2022/09/08 02:16:57;;;;;;;3.73;1.40;;;;;;;17.53;83.33;99408.53;5092748;28;20303;-78
2022/09/08 02:19:22;;;;;;;;;;;;;;;17.56;82.84;99413.22;5092770;28;20031;-78
2022/09/08 02:21:47;;;;;;;3.47;1.42;;;;;;;17.66;82.37;99412.41;5092219;28;20361;-78
2022/09/08 02:24:13;;;;;;;;;;;;;;;17.64;82.64;99408.50;5092551;28;20032;-78
2022/09/08 02:26:40;;;;;;;4.60;1.47;;;;;;;17.62;82.67;99413.59;5092033;28;19919;-78
2022/09/08 02:29:08;;;;;;;6.28;1.38;;;;;;;17.54;83.54;99407.34;5091940;28;20333;-78
2022/09/08 02:31:34;;;;;;;3.42;1.60;;;;;;;17.47;83.83;99403.81;5092148;28;20082;-78
2022/09/08 02:33:59;;;;;;;4.13;1.73;;;;;;;17.45;83.91;99404.22;5092025;28;20059;-78
2022/09/08 02:36:25;;;;;;;;;;;;;;;17.52;83.26;99401.44;5092396;28;20036;-78
2022/09/08 02:38:55;;;;;;;4.43;1.50;;;;;;;17.40;84.19;99410.13;5092072;28;19915;-78
2022/09/08 02:41:25;;;;;;;3.25;1.65;;;;;;;17.39;84.58;99408.56;5092323;28;20042;-78
2022/09/08 02:43:51;;;;;;;4.97;1.80;;;;;;;17.43;84.11;99404.59;5073889;28;20153;-78
2022/09/08 02:46:17;;;;;;;;;;;;;;;17.41;84.09;99401.47;5092762;28;20454;-78
2022/09/08 02:48:43;;;;;;;3.15;1.55;;;;;;;17.41;83.90;99393.22;5091965;28;20252;-78
2022/09/08 02:51:09;;;;;;;;;;;;;;;17.40;83.82;99399.13;5092049;28;20103;-78
2022/09/08 02:53:35;;;;;;;3.50;1.48;;;;;;;17.39;83.77;99403.06;5091887;28;19918;-78
2022/09/08 02:56:01;;;;;;;3.33;1.27;;;;;;;17.48;83.40;99397.94;5073817;28;20070;-78
2022/09/08 02:58:27;;;;;;;3.75;1.83;;;;;;;17.59;82.92;99409.66;5091471;28;20115;-78
2022/09/08 03:00:53;;;;;;;;;;;;;;;17.60;82.48;99408.47;5092147;28;20391;-78
2022/09/08 03:03:19;;;;;;;3.58;1.50;;;;;;;17.69;82.38;99411.63;5091936;28;20011;-78
2022/09/08 03:05:44;;;;;;;;;;;;;;;17.67;80.70;99408.47;5092239;28;20051;-77
2022/09/08 03:08:09;;;;;;;3.88;1.40;;;;;;;17.59;80.50;99411.63;5091752;28;19988;-77
2022/09/08 03:10:35;;;;;;;;;;;;;;;17.79;79.43;99411.97;5092102;28;20031;-78
2022/09/08 03:13:01;;;;;;;2.67;1.00;;;;;;;17.71;79.53;99412.03;5091818;28;19912;-78
2022/09/08 03:15:29;;;;;;;3.38;1.17;;;;;;;17.80;78.15;99408.81;5091909;28;20482;-78
2022/09/08 03:17:55;;;;;;;3.10;1.10;;;;;;;17.83;77.83;99399.00;5091684;28;20032;-78
2022/09/08 03:20:22;;;;;;;3.20;1.40;;;;;;;17.94;77.05;99396.97;5093072;28;20122;-77
2022/09/08 03:22:48;;;;;;;2.60;1.20;;;;;;;18.04;76.09;99396.13;5095023;28;20031;-78
2022/09/08 03:25:15;;;;;;;3.45;1.15;;;;;;;18.07;75.56;99397.28;5095160;28;20514;-76
2022/09/08 03:27:41;;;;;;;3.03;1.40;;;;;;;18.16;75.21;99392.91;5095043;28;20055;-77
2022/09/08 03:30:09;;;;;;;2.72;1.10;;;;;;;18.16;75.16;99389.38;5094873;28;20024;-78
2022/09/08 03:32:36;;;;;;;2.92;1.10;;;;;;;18.19;75.13;99386.59;5095000;28;20043;-77
2022/09/08 03:35:02;;;;;;;2.75;1.20;;;;;;;18.19;75.13;99388.56;5094908;28;20048;-77
2022/09/08 03:37:28;;;;;;;3.08;1.30;;;;;;;18.19;75.41;99394.88;5095036;28;20497;-76
2022/09/08 03:39:54;;;;;;;2.88;1.00;;;;;;;18.19;75.60;99385.81;5095298;28;20024;-77
2022/09/08 03:42:20;;;;;;;2.80;1.15;;;;;;;18.18;75.85;99382.28;5095007;28;20401;-78
2022/09/08 03:44:45;;;;;;;3.20;1.27;;;;;;;18.15;75.93;99385.84;5094724;28;20119;-78
2022/09/08 03:47:10;;;;;;;;;;;;;;;18.12;76.42;99386.63;5095347;28;20032;-78
2022/09/08 03:49:36;;;;;;;2.15;0.90;;;;;;;18.10;76.92;99383.50;5094877;28;19908;-78
2022/09/08 03:52:01;;;;;;;;;;;;;;;18.11;76.93;99384.28;5094856;28;20125;-77
2022/09/08 03:57:11;;;;;;;2.78;1.00;;;;;;;18.03;77.47;99392.59;5094552;28;20062;-76
2022/09/08 03:59:36;;;;;;;3.15;1.27;;;;;;;18.01;76.99;99385.94;5094677;28;20051;-77
2022/09/08 04:02:02;;;;;;;;;;;;;;;17.99;76.86;99393.81;5094952;28;20043;-78
2022/09/08 04:04:27;;;;;;;3.90;1.10;;;;;;;18.02;76.89;99390.25;5094036;28;20254;-78
2022/09/08 04:06:52;;;;;;;;;;;;;;;17.93;77.03;99393.41;5094946;28;20055;-76
2022/09/08 04:09:18;;;;;;;2.40;0.90;;;;;;;17.91;77.54;99395.00;5094347;28;19922;-77
2022/09/08 04:11:43;;;;;;;;;;;;;;;17.85;77.98;99383.66;5094742;28;20286;-76
2022/09/08 04:14:09;;;;;;;2.83;0.87;;;;;;;17.77;78.51;99384.84;5076043;28;20351;-76
2022/09/08 04:16:35;;;;;;;;;;;;;;;17.71;79.24;99384.50;5076429;28;20024;-77
2022/09/08 04:19:00;;;;;;;2.67;1.05;;;;;;;17.67;79.87;99385.66;5094277;28;19918;-77
2022/09/08 04:21:25;;;;;;;;;;;;;;;17.60;80.36;99386.47;5094606;28;20077;-77
2022/09/08 04:23:51;;;;;;;4.75;1.20;;;;;;;17.57;80.82;99386.47;5094095;28;19958;-77
2022/09/08 04:26:16;;;;;;;;;;;;;;;17.52;81.28;99393.19;5094288;28;20032;-77
2022/09/08 04:28:42;;;;;;;2.67;0.93;;;;;;;17.48;81.59;99400.69;5094190;28;19916;-78
2022/09/08 04:31:11;;;;;;;;;;;;;;;17.42;81.97;99402.25;5075990;28;20293;-77
2022/09/08 04:33:37;;;;;;;2.78;1.20;;;;;;;17.37;82.52;99405.44;5075627;28;19981;-77
2022/09/08 04:36:09;;;;;;;;;;;;;;;17.32;82.79;99403.88;5093999;28;20509;-77
2022/09/08 04:38:35;;;;;;;2.53;0.93;;;;;;;17.29;82.97;99401.91;5094159;28;19927;-78
2022/09/08 04:41:04;;;;;;;;;;;;;;;17.26;83.57;99405.44;5094344;28;20039;-77
2022/09/08 04:43:31;;;;;;;3.63;1.15;;;;;;;17.25;83.31;99406.63;5075550;28;19923;-78
2022/09/08 04:46:01;;;;;;;2.80;1.10;;;;;;;17.14;84.15;99401.16;5093396;28;20032;-76
2022/09/08 04:48:29;;;;;;;2.85;1.35;;;;;;;17.10;84.62;99405.88;5093448;28;20379;-77
2022/09/08 04:50:57;;;;;;;2.72;1.00;;;;;;;17.21;84.26;99410.56;5093324;28;20052;-77
2022/09/08 04:53:24;;;;;;;2.90;1.10;;;;;;;17.08;84.96;99410.19;5093147;28;20531;-77
2022/09/08 04:55:52;;;;;;;2.90;0.95;;;;;;;16.97;86.51;99415.72;5093457;28;20032;-78
2022/09/08 04:58:17;;;;;;;2.40;1.00;;;;;;;16.90;87.60;99420.44;5092994;28;20039;-78
2022/09/08 05:00:43;;;;;;;;;;;;;;;16.74;89.92;99424.34;5093741;28;20095;-77
2022/09/08 05:03:08;;;;;;;2.93;1.10;;;;;;;16.54;90.73;99421.19;5093107;28;19939;-77
2022/09/08 05:05:37;;;;;;;;;;;;;;;16.53;91.88;99433.34;5093991;28;20282;-77
2022/09/08 05:08:03;;;;;;;4.20;1.55;;;;;;;16.38;93.62;99426.25;5092981;28;19977;-76
2022/09/08 05:10:28;;;;;;;;;;;;;;;16.18;95.68;99434.06;5093300;28;20513;-78
2022/09/08 05:12:54;;;;;;;3.53;1.63;;;;;;;16.07;96.56;99440.69;5093453;28;20397;-77
2022/09/08 05:15:20;;;;;;;6.38;1.90;;;;;;;15.99;98.08;99433.63;5093148;28;20486;-77
2022/09/08 05:17:45;;;;;;;;;;;;;;;15.88;98.76;99439.06;5093400;28;20039;-77
2022/09/08 05:20:11;;;;;;;4.43;1.83;;;;;;;15.81;99.88;99431.59;5093123;28;19980;-75
2022/09/08 05:22:37;;;;;;;;;;;;;;;15.81;100.00;99433.56;5093118;28;20526;-77
2022/09/08 05:25:03;;;;;;;6.55;2.30;;;;;;;15.77;100.00;99433.53;5092802;28;19923;-79
2022/09/08 05:27:28;;;;;;;4.57;1.85;;;;;;;15.88;100.00;99442.59;5093039;28;20039;-79
2022/09/08 05:29:53;;;;;;;;;;;;;;;15.82;100.00;99435.91;5093023;28;20028;-77
2022/09/08 05:32:19;;;;;;;6.03;2.40;;;;;;;15.71;100.00;99440.56;5092501;28;19927;-79
2022/09/08 05:34:44;;;;;;;;;;;;;;;15.70;100.00;99441.75;5075070;28;20078;-78
2022/09/08 05:37:09;;;;;;;5.00;2.30;;;;;;;15.66;100.00;99432.72;5092531;28;20287;-78
2022/09/08 05:39:34;;;;;;;;;;;;;;;15.72;100.00;99444.88;5092575;28;20031;-78
2022/09/08 05:42:00;;;;;;;5.90;2.87;;;;;;;15.61;100.00;99439.34;5092444;28;19912;-78
2022/09/08 05:44:25;;;;;;;;;;;;;;;15.55;100.00;99437.31;5074783;28;20055;-78
2022/09/08 05:46:50;;;;;;;6.50;2.40;;;;;;;15.54;100.00;99430.25;5092969;28;19985;-78
2022/09/08 05:49:15;;;;;;;;;;;;;;;15.56;100.00;99427.91;5093433;28;20023;-77
2022/09/08 05:51:42;;;;;;;6.80;2.97;;;;;;;15.58;100.00;99425.56;5092661;28;20344;-78
2022/09/08 05:54:07;;;;;;;12.55;2.63;;;;;;;15.54;100.00;99424.78;5092995;28;20055;-77
2022/09/08 05:56:33;;;;;;;5.65;3.05;;;;;;;15.54;100.00;99427.53;5074616;28;20067;-78
2022/09/08 05:58:58;;;;;;;;;;;;;;;15.54;100.00;99422.81;5093137;28;20048;-79
2022/09/08 06:01:27;;;;;;;7.18;2.97;;;;;;;15.49;100.00;99414.97;5092492;28;19961;-77
2022/09/08 06:03:52;;;;;;;7.80;2.92;;;;;;;15.58;100.00;99425.56;5091954;28;20391;-79
2022/09/08 06:06:18;;;;;;;6.78;3.20;;;;;;;15.58;100.00;99425.56;5091947;28;20030;-79
2022/09/08 06:08:44;;;;;;;;;;;;;;;15.68;100.00;99424.88;5092750;28;20455;-77
2022/09/08 06:11:10;;;;;;;6.55;2.67;;;;;;;15.80;100.00;99423.75;5092048;28;20367;-78
2022/09/08 06:13:37;;;;;;;7.57;2.35;;;;;;;15.76;100.00;99422.94;5092108;28;20035;-78
2022/09/08 06:16:06;;;;;;;6.10;2.97;;;;;;;15.77;100.00;99430.00;5092219;28;20036;-78
2022/09/08 06:18:34;;;;;;;5.55;3.08;;;;;;;15.75;100.00;99438.63;5092351;28;20024;-79
2022/09/08 06:21:23;;;;;;;6.30;3.10;;;;;;;15.68;100.00;99444.09;5092502;28;20097;-78
2022/09/08 06:24:00;;;;;;;6.13;3.05;;;;;;;15.61;100.00;99441.28;5091470;28;20094;-80
2022/09/08 06:26:34;;;;;;;7.65;3.58;;;;;;;15.52;100.00;99446.31;5092153;28;20050;-79
2022/09/08 06:29:25;;;;;;;8.50;2.97;;;;;;;15.66;100.00;99453.88;5091950;28;20170;-80
2022/09/08 06:32:34;;;;;;;6.68;3.47;;;;;;;15.67;100.00;99449.97;5092028;28;20024;-78
2022/09/08 06:35:05;;;;;;;7.03;2.88;;;;;;;15.89;100.00;99446.91;5091422;28;20048;-80
2022/09/08 06:37:38;;;;;;;7.05;3.20;;;;;;;15.77;100.00;99450.00;5092070;28;20085;-80
2022/09/08 06:40:32;;;;;;;6.97;3.47;;;;;;;15.74;100.00;99445.28;5091974;28;20032;-81
2022/09/08 06:43:31;;;;;;;9.85;3.35;;;;;;;15.81;100.00;99439.06;5083497;28;20128;-80
2022/09/08 06:45:59;;;;;;;9.18;4.00;;;;;;;15.81;100.00;99448.06;5091840;28;20026;-81
2022/09/08 06:48:31;;;;;;;9.25;3.30;;;;;;;15.76;100.00;99444.91;5096832;28;20036;-80
2022/09/08 06:51:11;;;;;;;9.80;3.85;;;;;;;15.82;100.00;99443.38;5092266;28;20086;-80
2022/09/08 06:53:43;;;;;;;8.80;4.13;;;;;;;15.97;100.00;99438.72;5092106;28;20028;-80
2022/09/08 06:56:32;;;;;;;9.93;3.97;;;;;;;15.95;100.00;99441.84;5076882;28;20028;-79
2022/09/08 06:59:02;;;;;;;8.73;3.95;;;;;;;15.82;100.00;99435.91;5096560;28;20034;-80
2022/09/08 07:01:39;;;;;;;7.78;4.03;;;;;;;15.84;100.00;99432.78;5095765;28;20031;-78
2022/09/08 07:04:33;;;;;;;7.00;3.65;;;;;;;15.81;100.00;99431.59;5077926;28;20055;-79
2022/09/08 07:07:11;;;;;;;9.63;4.07;;;;;;;15.85;100.00;99440.63;5095579;28;20028;-79
2022/09/08 07:09:44;;;;;;;9.05;4.00;;;;;;;15.92;100.00;99457.13;5095930;28;20085;-79
2022/09/08 07:12:35;;;;;;;7.60;3.92;;;;;;;15.94;100.00;99465.75;5095606;28;20055;-78
2022/09/08 07:15:18;;;;;;;7.90;4.35;;;;;;;15.90;100.00;99466.91;5077061;28;20032;-79
2022/09/08 07:18:14;;;;;;;8.05;3.97;;;;;;;15.87;100.00;99468.50;5095984;28;20465;-79
2022/09/08 07:20:39;;;;;;;5.45;2.60;;;;;;;15.63;100.00;99472.69;5088963;28;20048;-79
2022/09/08 07:23:11;;;;;;;4.18;2.33;;;;;;;15.60;100.00;99472.66;5095227;28;20148;-78
2022/09/08 07:25:44;;;;;;;4.90;2.00;;;;;;;15.48;100.00;99481.19;5076933;28;20039;-79
2022/09/08 07:28:13;;;;;;;8.48;2.08;;;;;;;15.57;100.00;99484.38;5096003;28;20040;-80
2022/09/08 07:30:39;;;;;;;3.88;1.70;;;;;;;15.39;100.00;99488.97;5095762;28;20039;-79
2022/09/08 07:33:26;;;;;;;5.70;1.70;;;;;;;15.41;100.00;99500.34;5095609;28;20031;-79
2022/09/08 07:36:10;;;;;;;6.32;1.88;;;;;;;15.54;100.00;99496.13;5077387;28;20028;-78
2022/09/08 07:38:47;;;;;;;7.57;2.30;;;;;;;15.56;100.00;99488.28;5095208;28;20382;-78
2022/09/08 07:41:19;;;;;;;4.00;1.58;;;;;;;15.42;100.00;99482.72;5095050;28;20032;-78
2022/09/08 07:43:47;;;;;;;5.28;1.70;;;;;;;15.38;100.00;99487.38;5095354;28;20027;-79
2022/09/08 07:46:21;;;;;;;5.80;2.17;;;;;;;15.28;100.00;99500.66;5095066;28;20043;-79
2022/09/08 07:48:55;;;;;;;4.82;1.83;;;;;;;15.42;100.00;99499.16;5095091;28;20168;-78
2022/09/08 07:51:24;;;;;;;4.70;1.75;;;;;;;15.47;100.00;99496.09;5094717;28;20039;-81
2022/09/08 07:53:59;;;;;;;5.45;1.73;;;;;;;15.49;100.00;99496.47;5078145;28;20024;-80
2022/09/08 07:56:52;;;;;;;4.13;1.70;;;;;;;15.31;100.00;99499.09;5077702;28;20024;-79
2022/09/08 07:59:37;;;;;;;4.18;1.80;;;;;;;15.32;100.00;99501.47;5077608;28;20024;-79
2022/09/08 08:02:41;;;;;;;4.45;1.90;;;;;;;15.32;100.00;99504.22;5095450;28;20463;-80
2022/09/08 08:05:18;;;;;;;6.13;2.00;;;;;;;15.46;100.00;99495.28;5080275;28;20067;-79
2022/09/08 08:07:59;;;;;;;7.82;2.60;;;;;;;15.46;100.00;99500.78;5094918;28;20028;-80
2022/09/08 08:10:30;;;;;;;6.00;2.83;;;;;;;15.30;100.00;99514.00;5095322;28;20447;-78
2022/09/08 08:13:04;;;;;;;6.53;2.97;;;;;;;15.13;100.00;99504.47;5094958;28;20030;-77
2022/09/08 08:15:46;;;;;;;8.45;3.17;;;;;;;15.16;100.00;99509.19;5095259;28;20032;-78
2022/09/08 08:18:21;;;;;;;9.45;4.15;;;;;;;15.14;100.00;99500.56;5094806;28;20047;-79
2022/09/08 08:21:08;;;;;;;9.70;3.85;;;;;;;15.29;100.00;99502.25;5076561;28;20039;-79
2022/09/08 08:23:55;;;;;;;9.10;3.70;;;;;;;15.31;100.00;99504.59;5076725;28;20039;-78
2022/09/08 08:26:45;;;;;;;9.77;4.50;;;;;;;15.29;100.00;99512.41;5076382;28;20028;-80
2022/09/08 08:29:30;;;;;;;8.40;4.28;;;;;;;15.48;100.00;99509.41;5094914;28;20031;-79
2022/09/08 08:32:08;;;;;;;8.57;3.92;;;;;;;15.57;100.00;99503.56;5094330;28;20028;-79
2022/09/08 08:34:40;;;;;;;10.25;4.80;;;;;;;15.64;100.00;99500.94;5094827;28;20028;-79
2022/09/08 08:37:08;;;;;;;11.80;4.93;;;;;;;15.79;100.00;99507.25;5076224;28;20669;-78
2022/09/08 08:39:36;;;;;;;11.48;4.50;;;;;;;15.67;100.00;99510.34;5093898;28;20036;-79
2022/09/08 08:42:24;;;;;;;11.10;5.30;;;;;;;15.68;100.00;99507.22;5094311;28;20111;-79
2022/09/08 08:45:24;;;;;;;10.77;4.78;;;;;;;15.66;100.00;99512.31;5083033;28;20040;-80
2022/09/08 08:48:05;;;;;;;10.90;5.05;;;;;;;15.61;100.00;99512.63;5094085;28;20051;-79
2022/09/08 08:50:49;;;;;;;10.18;4.57;;;;;;;15.38;100.00;99515.59;5093542;28;20032;-80
2022/09/08 08:53:48;;;;;;;9.13;3.95;;;;;;;15.42;100.00;99521.91;5093833;28;20051;-81
2022/09/08 08:56:32;;;;;;;6.88;3.08;;;;;;;15.39;100.00;99519.13;5075638;28;20443;-80
2022/09/08 08:59:18;;;;;;;7.43;3.15;;;;;;;15.44;100.00;99524.25;5093395;28;20024;-79
2022/09/08 09:01:59;;;;;;;6.18;2.95;;;;;;;15.42;100.00;99526.59;5075330;28;20036;-80
2022/09/08 09:04:42;;;;;;;5.97;3.00;;;;;;;15.40;100.00;99523.44;5093277;28;20044;-78
2022/09/08 09:07:35;;;;;;;7.03;3.05;;;;;;;15.45;100.00;99521.16;5093360;28;20344;-79
2022/09/08 09:10:07;;;;;;;6.05;2.78;;;;;;;15.42;100.00;99521.91;5093320;28;20540;-78
2022/09/08 09:13:19;;;;;;;5.82;2.47;;;;;;;15.45;100.00;99525.84;5093486;28;20032;-79
2022/09/08 09:16:06;;;;;;;5.68;2.30;;;;;;;15.46;100.00;99527.44;5011185;28;20536;-79
2022/09/08 09:19:05;;;;;;;6.13;2.30;;;;;;;15.48;100.00;99525.88;5011249;28;20149;-79
2022/09/08 09:22:21;;;;;;;5.53;2.13;;;;;;;15.48;100.00;99520.38;5085288;28;20040;-78
2022/09/08 09:25:05;;;;;;;4.47;1.50;;;;;;;15.50;100.00;99523.53;5011648;28;20113;-79
2022/09/08 09:27:41;;;;;;;5.28;1.92;;;;;;;15.56;100.00;99518.47;5087158;28;20040;-78
2022/09/08 09:30:16;;;;;;;4.90;2.30;;;;;;;15.54;100.00;99527.09;5094144;28;20032;-78
2022/09/08 09:32:50;;;;;;;4.47;2.20;;;;;;;15.59;100.00;99521.25;5093618;28;20109;-79
2022/09/08 09:35:43;;;;;;;5.88;1.90;;;;;;;15.71;100.00;99522.13;5093353;28;20093;-79
2022/09/08 09:38:15;;;;;;;4.50;1.80;;;;;;;15.83;100.00;99514.34;5093153;28;20024;-79
2022/09/08 09:41:05;;;;;;;3.88;1.70;;;;;;;15.88;100.00;99519.47;5094741;28;20431;-78
2022/09/08 09:43:37;;;;;;;3.55;1.80;;;;;;;15.88;100.00;99526.91;5076456;28;20463;-78
2022/09/08 09:46:14;;;;;;;3.80;1.80;;;;;;;16.07;100.00;99523.88;5092861;28;20042;-77
2022/09/08 09:48:51;;;;;;;5.68;2.08;;;;;;;16.05;100.00;99531.72;5093391;28;20089;-77
2022/09/08 09:51:36;;;;;;;4.28;1.73;;;;;;;16.16;100.00;99516.06;5092404;28;20088;-76
2022/09/08 09:54:23;;;;;;;5.38;1.80;;;;;;;16.28;100.00;99522.38;5092718;28;20036;-77
2022/09/08 09:57:12;;;;;;;3.53;1.67;;;;;;;16.12;99.20;99512.50;5092449;28;20106;-77
2022/09/08 10:00:04;;;;;;;4.07;1.52;;;;;;;16.28;98.95;99512.19;5092950;28;20459;-77
2022/09/08 10:03:02;;;;;;;3.35;1.17;;;;;;;16.35;97.35;99514.97;5074620;28;20028;-79
2022/09/08 10:06:04;;;;;;;4.32;1.60;;;;;;;16.32;98.08;99501.22;5091799;28;20101;-80
2022/09/08 10:08:36;;;;;;;2.47;1.08;;;;;;;16.35;95.74;99498.47;5092554;28;20048;-78
2022/09/08 10:11:04;;;;;;;3.65;1.30;;;;;;;16.52;96.41;99505.97;5092067;28;20489;-78
2022/09/08 10:13:54;;;;;;;3.08;1.40;;;;;;;16.75;96.54;99499.38;5074451;28;20405;-78
2022/09/08 10:17:01;;;;;;;3.17;1.48;;;;;;;16.86;92.94;99500.19;5092618;28;20034;-78
2022/09/08 10:20:11;;;;;;;2.70;1.17;;;;;;;16.96;93.09;99496.63;5092113;28;20439;-79
2022/09/08 10:22:58;;;;;;;2.92;1.27;;;;;;;16.96;93.39;99499.38;5092346;28;20139;-79
2022/09/08 10:25:32;;;;;;;4.45;1.50;;;;;;;16.96;91.71;99499.38;5092517;28;20024;-79
2022/09/08 10:28:06;;;;;;;2.92;1.15;;;;;;;17.17;88.75;99501.38;5073988;28;20024;-75
2022/09/08 10:30:35;;;;;;;5.22;1.48;;;;;;;17.49;87.22;99498.59;5096043;28;20035;-78
2022/09/08 10:33:19;;;;;;;2.78;1.30;;;;;;;17.53;86.62;99488.34;5096432;28;20032;-78
2022/09/08 10:35:51;;;;;;;2.30;1.10;;;;;;;17.55;87.50;99494.22;5095847;28;20439;-77
2022/09/08 10:38:38;;;;;;;3.33;1.45;;;;;;;17.47;86.55;99492.69;5096293;28;20123;-77
2022/09/08 10:41:22;;;;;;;2.75;1.20;;;;;;;17.43;86.83;99487.16;5095577;28;20035;-77
2022/09/08 10:44:22;;;;;;;4.32;1.40;;;;;;;17.36;87.84;99498.19;5077747;28;20024;-77
2022/09/08 10:47:15;;;;;;;4.15;1.73;;;;;;;17.43;87.56;99503.69;5096161;28;20427;-77
2022/09/08 10:50:07;;;;;;;4.15;0.90;;;;;;;17.30;86.33;99496.22;5095944;28;20039;-76
2022/09/08 10:53:12;;;;;;;4.45;0.90;;;;;;;17.32;85.84;99496.63;5096594;28;20035;-77
2022/09/08 10:55:55;;;;;;;2.30;0.73;;;;;;;17.50;84.07;99497.41;5092691;28;20093;-77
2022/09/08 10:58:33;;;;;;;3.95;0.93;;;;;;;17.60;83.76;99495.78;5096361;28;20040;-77
2022/09/08 11:01:15;;;;;;;2.65;0.90;;;;;;;17.63;83.66;99495.78;5096309;28;20036;-76
2022/09/08 11:04:06;;;;;;;3.33;0.82;;;;;;;17.67;81.41;99487.53;5095796;28;20034;-75
2022/09/08 11:06:40;;;;;;;1.30;0.60;;;;;;;17.58;82.09;99490.69;5096085;28;20040;-75
2022/09/08 11:09:21;;;;;;;1.90;0.73;;;;;;;17.93;80.88;99481.56;5096360;28;20681;-76
2022/09/08 11:12:24;;;;;;;1.90;0.80;;;;;;;18.20;78.63;99470.81;5095728;28;20042;-76
2022/09/08 11:15:21;;;;;;;1.30;0.70;;;;;;;18.30;75.00;99482.97;5095702;28;20185;-77
2022/09/08 11:17:49;;;;;;;2.13;0.60;;;;;;;18.44;75.29;99477.38;5095631;28;20032;-80
2022/09/08 11:20:39;;;;;;;1.65;0.93;;;;;;;18.63;73.49;99479.63;5095390;28;20031;-79
2022/09/08 11:23:47;;;;;;;5.95;1.10;;;;;;;18.68;73.61;99480.41;5096706;28;20098;-83
2022/09/08 11:26:32;;;;;;;1.73;0.75;;;;;;;18.68;72.86;99481.22;5077485;28;20028;-80
2022/09/08 11:29:09;;;;;;;1.65;0.60;;;;;;;18.55;72.73;99474.56;5096067;28;20024;-79
2022/09/08 11:31:53;;;;;;;2.53;0.80;;;;;;;18.46;71.69;99479.72;5095590;28;20050;-80
2022/09/08 11:34:42;;;;;;;1.85;0.70;;;;;;;18.50;71.67;99475.00;5096254;28;20035;-80
2022/09/08 12:25:33;;;;;;;2.30;0.70;;;;;;;20.61;59.26;99441.25;6189517;22;20032;-80
2022/09/08 12:28:04;;;;;;;1.60;0.52;;;;;;;20.71;59.38;99441.09;6157207;23;20084;-80
2022/09/08 12:30:43;;;;;;;1.23;0.50;;;;;;;20.51;59.55;99442.97;6157280;23;20005;-80
2022/09/08 12:33:44;;;;;;;2.45;0.80;;;;;;;20.30;60.30;99446.78;6157512;22;20021;-80
2022/09/08 12:36:17;;;;;;;1.65;0.60;;;;;;;20.35;59.41;99440.81;6157846;22;20058;-80
2022/09/08 12:39:14;;;;;;;1.63;0.70;;;;;;;20.27;60.66;99438.56;6260796;22;20031;-81
2022/09/08 12:41:55;;;;;;;1.70;0.65;;;;;;;20.27;60.31;99441.31;6158639;22;20043;-80
2022/09/08 12:44:21;;;;;;;1.33;0.60;;;;;;;20.16;60.00;99443.47;6157758;22;20005;-80
2022/09/08 12:47:24;;;;;;;2.45;0.70;;;;;;;20.18;60.22;99441.06;6157888;23;20016;-79
2022/09/08 12:50:12;;;;;;;2.15;0.60;;;;;;;20.44;59.00;99437.53;6158178;22;20025;-80
2022/09/08 12:52:55;;;;;;;2.63;0.70;;;;;;;20.34;59.50;99441.22;6158727;23;20001;-82
2022/09/08 12:55:30;;;;;;;3.10;0.60;;;;;;;20.54;60.11;99447.66;6159736;22;20074;-80
2022/09/08 12:58:01;;;;;;;3.22;0.70;;;;;;;20.84;57.84;99440.50;6159750;22;20006;-81
2022/09/08 13:00:37;;;;;;;1.33;0.60;;;;;;;21.39;57.04;99434.41;6172062;22;20009;-79
2022/09/08 13:03:02;;;;;;;;;;;;;;;21.35;56.90;99438.47;6159905;22;20036;-81
2022/09/08 13:05:40;;;;;;;1.48;0.60;;;;;;;20.90;57.57;99434.06;6159097;23;19904;-81
2022/09/08 13:08:42;;;;;;;1.65;0.68;;;;;;;20.58;58.04;99442.88;6157871;23;20458;-80
2022/09/08 13:11:19;;;;;;;1.60;0.60;;;;;;;20.39;58.04;99441.53;6261268;22;20009;-80